LFBG/CNG METAR and TAF weather

Enter ICAO airport designator
Station Type Date Time Source
LFBG METAR 2019/06/17 07:00 UTC NOAA

LFBG 170700Z AUTO 04006KT 020V080 CAVOK 17/13 Q1018 NOSIG


Station Type Date Time Source
LFBG Decoded METAR 2019/06/17 07:00 UTC NOAA

Cognac, France (LFBG) 45-40N 000-19W 31M
Jun 17, 2019 - 03:00 AM EDT / 2019.06.17 0700 UTC
Wind: from the NE (040 degrees) at 7 MPH (6 KT) (direction variable):0
Visibility: greater than 7 mile(s):0
Temperature: 62 F (17 C)
Dew Point: 55 F (13 C)
Relative Humidity: 77%
Pressure (altimeter): 30.06 in. Hg (1018 hPa)
ob: LFBG 170700Z AUTO 04006KT 020V080 CAVOK 17/13 Q1018 NOSIG
cycle: 7

Station Type Date Time Source
LFBG TAF 2019/06/17 03:26 UTC NOAA

TAF LFBG 170200Z 1703/1803 05005KT CAVOK

Example: see airport list